createdAt,value
2022-12-15T00:00:00.321Z,7.7
2022-12-15T00:05:00.310Z,7.9
2022-12-15T00:10:00.331Z,8.4
2022-12-15T00:15:00.318Z,7.2
2022-12-15T00:20:00.322Z,9.3
2022-12-15T00:25:00.319Z,8.2
2022-12-15T00:30:00.321Z,8.1
2022-12-15T00:35:00.324Z,8.3
2022-12-15T00:40:00.323Z,8.0
2022-12-15T00:45:00.312Z,9.1
2022-12-15T00:50:00.326Z,8.7
2022-12-15T00:55:00.331Z,8.0
2022-12-15T01:00:00.318Z,8.7
2022-12-15T01:05:00.465Z,9.1
2022-12-15T01:10:00.402Z,9.5
2022-12-15T01:15:00.323Z,8.9
2022-12-15T01:20:00.310Z,8.1
2022-12-15T01:25:00.318Z,7.4
2022-12-15T01:30:00.330Z,10.1
2022-12-15T01:35:00.308Z,8.6
2022-12-15T01:40:00.317Z,8.6
2022-12-15T01:45:00.323Z,8.8
2022-12-15T01:50:00.319Z,9.1
2022-12-15T01:55:00.327Z,8.8
2022-12-15T02:00:00.321Z,9.8
2022-12-15T02:05:00.321Z,9.9
2022-12-15T02:10:00.321Z,8.8
2022-12-15T02:15:00.330Z,9.6
2022-12-15T02:20:00.323Z,10.0
2022-12-15T02:25:00.331Z,8.9
2022-12-15T02:30:00.316Z,9.0
2022-12-15T02:35:00.320Z,9.3
2022-12-15T02:40:00.320Z,9.1
2022-12-15T02:45:00.319Z,9.2
2022-12-15T02:50:00.325Z,9.7
2022-12-15T02:55:00.311Z,10.7
2022-12-15T03:00:00.318Z,9.2
2022-12-15T03:05:00.322Z,9.8
2022-12-15T03:10:00.325Z,8.6
2022-12-15T03:15:00.323Z,7.8
2022-12-15T03:20:00.339Z,9.3
2022-12-15T03:25:00.320Z,9.6
2022-12-15T03:30:00.329Z,8.8
2022-12-15T03:35:00.314Z,9.1
2022-12-15T03:40:00.329Z,9.9
2022-12-15T03:45:00.314Z,8.6
2022-12-15T03:50:00.328Z,8.9
2022-12-15T03:55:00.316Z,9.0
2022-12-15T04:00:00.321Z,8.6
2022-12-15T04:05:00.319Z,8.8
2022-12-15T04:10:00.322Z,9.6
2022-12-15T04:15:00.327Z,10.3
2022-12-15T04:20:00.327Z,9.3
2022-12-15T04:25:00.344Z,10.4
2022-12-15T04:30:00.314Z,10.0
2022-12-15T04:35:00.330Z,8.8
2022-12-15T04:40:00.330Z,8.7
2022-12-15T04:45:00.322Z,9.6
2022-12-15T04:50:00.326Z,9.7
2022-12-15T04:55:00.330Z,10.3
2022-12-15T05:00:00.322Z,10.2
2022-12-15T05:05:00.320Z,10.0
2022-12-15T05:10:03.121Z,9.4
2022-12-15T05:15:00.310Z,9.8
2022-12-15T05:20:00.321Z,8.8
2022-12-15T05:25:00.317Z,9.5
2022-12-15T05:30:00.330Z,0.0
2022-12-15T05:35:00.311Z,9.5
2022-12-15T05:40:00.331Z,10.6
2022-12-15T05:45:00.327Z,9.1
2022-12-15T05:50:00.321Z,8.6
2022-12-15T05:55:00.321Z,9.2
2022-12-15T06:00:00.367Z,0.0
2022-12-15T06:05:00.380Z,9.1
2022-12-15T06:10:00.316Z,9.7
2022-12-15T06:15:00.345Z,8.9
2022-12-15T06:20:00.339Z,8.7
2022-12-15T06:25:00.323Z,8.1
2022-12-15T06:30:00.323Z,8.0
2022-12-15T06:35:00.315Z,9.4
2022-12-15T06:40:00.325Z,7.6
2022-12-15T06:45:00.310Z,8.8
2022-12-15T06:50:00.322Z,8.9
2022-12-15T06:55:00.318Z,8.6
2022-12-15T07:00:00.326Z,9.4
2022-12-15T07:05:00.322Z,13.6
2022-12-15T07:10:00.327Z,11.0
2022-12-15T07:15:00.332Z,10.2
2022-12-15T07:20:00.355Z,10.2
2022-12-15T07:25:00.320Z,9.5
2022-12-15T07:30:00.322Z,10.6
2022-12-15T07:35:00.339Z,9.1
2022-12-15T07:40:00.328Z,8.8
2022-12-15T07:45:00.328Z,11.5
2022-12-15T07:50:00.330Z,8.9
2022-12-15T07:55:00.315Z,12.5
2022-12-15T08:00:00.326Z,9.8
2022-12-15T08:05:00.321Z,9.8
2022-12-15T08:10:00.326Z,10.3
2022-12-15T08:15:00.327Z,10.8
2022-12-15T08:20:06.290Z,11.9
2022-12-15T08:25:00.320Z,12.4
2022-12-15T08:30:00.332Z,12.0
2022-12-15T08:35:00.336Z,11.4
2022-12-15T08:40:00.319Z,9.6
2022-12-15T08:45:00.323Z,10.7
2022-12-15T08:50:00.326Z,10.4
2022-12-15T08:55:00.324Z,10.7
2022-12-15T09:00:00.331Z,10.7
2022-12-15T09:05:00.317Z,11.4
2022-12-15T09:10:00.318Z,12.9
2022-12-15T09:15:00.328Z,11.9
2022-12-15T09:20:00.333Z,11.4
2022-12-15T09:25:00.349Z,11.0
2022-12-15T09:30:00.311Z,11.7
2022-12-15T09:35:00.327Z,12.0
2022-12-15T09:40:00.326Z,12.9
2022-12-15T09:45:00.345Z,10.5
2022-12-15T09:50:00.329Z,11.1
2022-12-15T09:55:00.388Z,12.1
2022-12-15T10:00:00.378Z,11.7
2022-12-15T10:05:00.348Z,11.9
2022-12-15T10:10:00.377Z,13.7
2022-12-15T10:15:00.359Z,12.0
2022-12-15T10:20:00.346Z,13.0
2022-12-15T10:25:09.690Z,12.9
2022-12-15T10:30:00.500Z,13.3
2022-12-15T10:35:00.437Z,12.4
2022-12-15T10:40:00.355Z,11.0
2022-12-15T10:45:00.351Z,11.4
2022-12-15T10:50:00.341Z,12.2
2022-12-15T10:55:00.334Z,11.1
2022-12-15T11:00:00.355Z,10.0
2022-12-15T11:05:00.323Z,9.8
2022-12-15T11:10:00.344Z,9.9
2022-12-15T11:15:00.321Z,9.3
2022-12-15T11:20:03.028Z,9.9
2022-12-15T11:25:00.328Z,10.7
2022-12-15T11:30:00.326Z,10.5
2022-12-15T11:35:00.336Z,10.2
2022-12-15T11:40:00.325Z,9.9
2022-12-15T11:45:00.324Z,11.3
2022-12-15T11:50:00.322Z,8.6
2022-12-15T11:55:00.322Z,10.5
2022-12-15T12:00:00.345Z,10.2
2022-12-15T12:05:00.356Z,10.3
2022-12-15T12:10:00.315Z,9.9
2022-12-15T12:15:00.319Z,9.1
2022-12-15T12:20:00.327Z,10.7
2022-12-15T12:25:00.315Z,11.7
2022-12-15T12:30:00.340Z,9.7
2022-12-15T12:35:31.213Z,9.3
2022-12-15T12:40:00.332Z,9.9
2022-12-15T12:45:00.334Z,10.4
2022-12-15T12:50:00.328Z,9.6
2022-12-15T12:55:00.327Z,10.0
2022-12-15T13:00:00.331Z,9.6
2022-12-15T13:05:00.319Z,10.0
2022-12-15T13:10:00.333Z,10.8
2022-12-15T13:15:00.333Z,10.6
2022-12-15T13:20:00.352Z,10.4
2022-12-15T13:25:00.332Z,12.3
2022-12-15T13:30:00.340Z,10.6
2022-12-15T13:35:00.325Z,12.2
2022-12-15T13:40:00.328Z,13.6
2022-12-15T13:45:00.319Z,12.1
2022-12-15T13:50:02.186Z,14.0
2022-12-15T13:55:00.318Z,13.1
2022-12-15T14:00:00.335Z,12.6
2022-12-15T14:05:00.326Z,15.1
2022-12-15T14:10:00.312Z,13.9
2022-12-15T14:15:00.328Z,14.9
2022-12-15T14:20:00.323Z,14.7
2022-12-15T14:25:00.323Z,14.4
2022-12-15T14:30:00.960Z,13.4
2022-12-15T14:35:00.324Z,14.9
2022-12-15T14:40:00.327Z,14.8
2022-12-15T14:45:00.335Z,17.4
2022-12-15T14:50:00.354Z,15.0
2022-12-15T14:55:00.318Z,18.9
2022-12-15T15:00:00.329Z,16.5
2022-12-15T15:05:00.327Z,15.7
2022-12-15T15:10:00.339Z,17.5
2022-12-15T15:15:00.323Z,16.8
2022-12-15T15:20:00.325Z,16.9
2022-12-15T15:25:00.339Z,18.5
2022-12-15T15:30:00.329Z,17.4
2022-12-15T15:35:00.323Z,18.0
2022-12-15T15:40:00.322Z,15.9
2022-12-15T15:45:00.332Z,18.7
2022-12-15T15:50:00.325Z,17.5
2022-12-15T15:55:00.322Z,18.0
2022-12-15T16:00:00.327Z,16.6
2022-12-15T16:05:00.324Z,16.9
2022-12-15T16:10:00.336Z,18.1
2022-12-15T16:15:00.322Z,18.4
2022-12-15T16:20:00.321Z,17.5
2022-12-15T16:25:00.321Z,18.5
2022-12-15T16:30:00.319Z,18.2
2022-12-15T16:35:00.334Z,19.2
2022-12-15T16:40:00.450Z,18.9
2022-12-15T16:50:00.407Z,21.1
2022-12-15T16:55:00.405Z,17.2
2022-12-15T17:00:00.406Z,20.8
2022-12-15T17:05:00.409Z,18.7
2022-12-15T17:10:00.427Z,18.0
2022-12-15T17:15:00.409Z,19.4
2022-12-15T17:20:29.820Z,18.7
2022-12-15T17:25:00.425Z,22.4
2022-12-15T17:30:00.454Z,20.9
2022-12-15T17:35:00.408Z,20.3
2022-12-15T17:40:00.410Z,19.8
2022-12-15T17:45:00.462Z,19.9
2022-12-15T17:50:00.390Z,25.7
2022-12-15T17:55:00.405Z,22.9
2022-12-15T18:00:00.511Z,23.5
2022-12-15T18:05:00.409Z,22.2
2022-12-15T18:10:00.475Z,21.6
2022-12-15T18:15:00.396Z,22.6
2022-12-15T18:20:00.522Z,22.3
2022-12-15T18:25:00.410Z,22.7
2022-12-15T18:30:00.524Z,20.8
2022-12-15T18:35:00.410Z,21.4
2022-12-15T18:40:04.526Z,21.4
2022-12-15T18:45:00.486Z,21.7
2022-12-15T18:50:00.403Z,22.8
2022-12-15T18:55:00.407Z,20.0
2022-12-15T19:00:00.406Z,19.1
2022-12-15T19:05:00.411Z,22.0
2022-12-15T19:10:00.404Z,19.3
2022-12-15T19:15:00.404Z,18.9
2022-12-15T19:20:00.391Z,20.9
2022-12-15T19:25:00.417Z,20.5
2022-12-15T19:30:00.418Z,22.3
2022-12-15T19:35:00.394Z,22.7
2022-12-15T19:40:00.405Z,21.7
2022-12-15T19:45:00.412Z,21.9
2022-12-15T19:50:00.416Z,21.8
2022-12-15T19:55:00.389Z,21.7
2022-12-15T20:00:00.453Z,21.2
2022-12-15T20:05:00.420Z,22.3
2022-12-15T20:10:00.424Z,22.7
2022-12-15T20:15:00.405Z,22.8
2022-12-15T20:20:00.420Z,21.4
2022-12-15T20:25:00.391Z,20.1
2022-12-15T20:30:00.412Z,19.2
2022-12-15T20:35:00.411Z,18.8
2022-12-15T20:40:00.403Z,19.4
2022-12-15T20:45:00.392Z,20.9
2022-12-15T20:50:00.418Z,21.1
2022-12-15T20:55:00.402Z,21.9
2022-12-15T21:00:00.410Z,18.4
2022-12-15T21:05:00.407Z,21.0
2022-12-15T21:10:00.415Z,18.9
2022-12-15T21:15:00.404Z,19.4
2022-12-15T21:20:00.402Z,0.0
2022-12-15T21:25:00.409Z,18.4
2022-12-15T21:30:00.411Z,18.7
2022-12-15T21:35:00.410Z,17.4
2022-12-15T21:40:00.407Z,19.6
2022-12-15T21:45:00.433Z,18.7
2022-12-15T21:50:00.402Z,20.1
2022-12-15T21:55:00.404Z,20.7
2022-12-15T22:00:00.407Z,21.0
2022-12-15T22:05:00.405Z,17.6
2022-12-15T22:10:00.404Z,18.5
2022-12-15T22:15:00.406Z,19.7
2022-12-15T22:20:00.413Z,21.1
2022-12-15T22:25:00.402Z,21.0
2022-12-15T22:30:00.408Z,18.9
2022-12-15T22:35:00.400Z,20.2
2022-12-15T22:40:00.408Z,18.4
2022-12-15T22:45:00.395Z,19.1
2022-12-15T22:50:00.407Z,17.2
2022-12-15T22:55:00.404Z,17.8
2022-12-15T23:00:00.562Z,18.0
2022-12-15T23:05:00.404Z,18.7
2022-12-15T23:10:00.415Z,16.2
2022-12-15T23:15:00.395Z,17.0
2022-12-15T23:20:00.405Z,16.1
2022-12-15T23:25:00.405Z,17.3
2022-12-15T23:30:00.409Z,13.3
2022-12-15T23:35:00.405Z,17.3
2022-12-15T23:40:00.404Z,17.9
2022-12-15T23:45:00.519Z,18.2
2022-12-15T23:50:00.411Z,20.1
2022-12-15T23:55:00.408Z,18.1
